Jefferson, New Hampshire
Current Conditions -  °F | °C
As of 9:52 AM on Monday 22 Dec 2014 (Local Time) from KHIE Reporting Station
Overcast Overcast  
Wind Chill: 27°   Ceiling: 3300
Heat Index: 27°   Visibility: 10mi
Dew Point: 23°   Wind: 0mph
Humidity: 85%   Direction: NA
Pressure: 30.35"   Gusts: NA
Location:  44.42°N, 71.47°W
Report Text: KHIE 221452Z AUTO 00000KT 10SM OVC033 M03/M05 A3035 RMK AO2 SLP296 T10281050 50001
Loading
Personal Weather Stations






























Interactive Weather Map New forecast layout! Learn more

10-Day Weather Forecast

Advertisements
Track Severe Weather on mobile